MLU weather

Public forecast

Using degrees Fahrenheit for public forecast. Weather courtesy of forecast.io.

Current aviation weather report (METAR) for Monroe Regional Airport

Retrieved 2020/08/13 12:53 UTC (46 minutes ago):

KMLU 131253Z 00000KT 10SM SCT065 BKN100 BKN120 26/24 A2999 RMK AO2 SLP153 T02560239

Aviation forecast (TAF) for Monroe Regional Airport

Retrieved 2020/08/13 12:45 UTC (54 minutes ago):

TAF KMLU 131143Z 1312/1412 00000KT P6SM SKC FM131500 25006KT P6SM BKN035 FM132100 27005KT P6SM VCTS SCT050CB BKN250 FM140000 21004KT P6SM BKN250 FM140900 17002KT 4SM BR BKN250